ADDS METAR Data INFO
IDs: Format: Raw Decoded Include TAF

Data at: 0856 UTC 19 Jun 2018

KWYS 190850Z AUTO 00000KT 10SM OVC047 05/05 A3014 RMK AO2
KWYS 190830Z AUTO 00000KT 10SM OVC049 05/05 A3014 RMK AO2
KWYS 190815Z AUTO 00000KT 10SM BKN050 BKN055 05/05 A3014 RMK AO2
KWYS 190755Z AUTO 00000KT 10SM SCT047 BKN060 05/05 A3014 RMK AO2
KWYS 190735Z AUTO 00000KT 10SM BKN046 06/06 A3014 RMK AO2
KWYS 190715Z AUTO 13004KT 10SM FEW031 BKN044 06/07 A3015 RMK AO2
KWYS 190655Z AUTO 14005KT 10SM BKN044 OVC049 06/07 A3015 RMK AO2
KWYS 190630Z AUTO 00000KT 10SM FEW028 SCT041 BKN049 07/07 A3015 RMK AO2
KWYS 190610Z AUTO 00000KT 10SM FEW032 SCT041 BKN050 07/07 A3015 RMK AO2
KWYS 190555Z AUTO 00000KT 6SM -RA BKN035 BKN050 OVC065 07/07 A3015 RMK AO2 P0001
KWYS 190535Z AUTO VRB03KT 9SM SCT032 BKN060 OVC075 07/06 A3016 RMK AO2
KWYS 190515Z AUTO 00000KT 10SM BKN032 OVC085 06/06 A3016 RMK AO2
KWYS 190455Z AUTO 34003KT 10SM BKN031 BKN050 OVC080 07/06 A3016 RMK AO2
KWYS 190435Z AUTO 12004KT 10SM FEW040 BKN050 OVC080 08/06 A3015 RMK AO2
KWYS 190410Z AUTO 00000KT 10SM SCT040 BKN065 OVC075 07/07 A3016 RMK AO2
KWYS 190350Z AUTO 00000KT 10SM FEW042 BKN065 OVC075 08/06 A3015 RMK AO2
KWYS 190330Z AUTO 00000KT 10SM FEW045 BKN050 OVC070 08/06 A3015 RMK AO2
KWYS 190315Z AUTO 00000KT 10SM FEW045 BKN050 OVC085 08/06 A3015 RMK AO2
KWYS 190255Z AUTO 22005KT 10SM FEW070 BKN080 09/06 A3015 RMK AO2
KWYS 190235Z AUTO 20009KT 10SM BKN080 09/05 A3014 RMK AO2
KWYS 190215Z AUTO 00000KT 10SM BKN070 OVC080 09/07 A3014 RMK AO2
KWYS 190155Z AUTO 00000KT 10SM SCT050 OVC065 09/06 A3014 RMK AO2
KWYS 190135Z AUTO 23005KT 10SM FEW040 BKN055 OVC070 09/06 A3013 RMK AO2
KWYS 190110Z AUTO 21008G16KT 10SM FEW026 SCT038 BKN050 09/06 A3013 RMK AO2
KWYS 190050Z AUTO 25006KT 10SM SCT026 BKN050 OVC065 11/06 A3012 RMK AO2
KWYS 190030Z AUTO 29006KT 10SM SCT024 BKN039 BKN050 11/06 A3012 RMK AO2
KWYS 190015Z AUTO VRB06G13KT 10SM FEW022 FEW040 BKN045 11/06 A3012 RMK AO2
KWYS 182355Z AUTO 23008KT 10SM FEW019 SCT043 BKN120 11/06 A3011 RMK AO2
KWYS 182335Z AUTO VRB05KT 10SM SCT019 BKN026 BKN034 11/07 A3012 RMK AO2
KWYS 182315Z AUTO 26003KT 10SM FEW019 SCT027 BKN034 10/06 A3011 RMK AO2
KWYS 182255Z AUTO 25004KT 10SM FEW019 FEW026 SCT034 10/07 A3011 RMK AO2
KWYS 182230Z AUTO 00000KT 10SM FEW014 BKN036 09/07 A3012 RMK AO2
KWYS 182215Z AUTO 00000KT 10SM SCT014 BKN035 09/07 A3012 RMK AO2
KWYS 182155Z AUTO VRB04KT 10SM SCT015 BKN027 OVC034 09/07 A3013 RMK AO2
KWYS 182135Z AUTO 00000KT 10SM OVC025 08/05 A3013 RMK AO2
KWYS 182115Z AUTO 10004KT 10SM FEW008 OVC025 07/05 A3012 RMK AO2
KWYS 182055Z AUTO VRB03KT 10SM FEW009 SCT027 BKN033 06/05 A3012 RMK AO2 P0003
KWYS 182030Z AUTO 00000KT 8SM -RA CLR 06/05 A3011 RMK AO2
KWYS 182015Z AUTO 18005G16KT 5SM -RA FEW036 05/04 A3012 RMK AO2
KWYS 181955Z AUTO 22012KT 2 1/2SM -RA CLR 06/05 A3012 RMK AO2 P0011 VIS 2V3
KWYS 181935Z AUTO 23013KT 4SM -RA BKN032 BKN040 06/05 A3011 RMK AO2
KWYS 181915Z AUTO 24008G18KT 8SM -RA FEW013 SCT023 BKN031 07/06 A3009 RMK AO2
KWYS 181850Z AUTO VRB03KT 10SM FEW019 SCT028 BKN036 11/08 A3005 RMK AO2
KWYS 181830Z AUTO VRB04KT 10SM SCT017 BKN023 OVC044 11/07 A3005 RMK AO2
KWYS 181815Z AUTO 00000KT 10SM SCT019 BKN026 OVC050 11/08 A3005 RMK AO2
KWYS 181755Z AUTO 00000KT 10SM SCT018 SCT026 OVC055 11/07 A3005 RMK AO2
KWYS 181735Z AUTO 18003KT 10SM SCT016 BKN021 OVC032 10/08 A3005 RMK AO2
KWYS 181715Z AUTO 11005KT 10SM FEW013 BKN025 BKN030 10/08 A3005 RMK AO2
KWYS 181655Z AUTO 12003KT 10SM FEW012 10/08 A3004 RMK AO2
KWYS 181635Z AUTO 11003KT 10SM CLR 10/08 A3004 RMK AO2
KWYS 181610Z AUTO 07005KT 10SM CLR 09/08 A3003 RMK AO2
KWYS 181555Z AUTO 06006KT 10SM FEW044 FEW049 SCT060 09/08 A3003 RMK AO2
KWYS 181535Z AUTO 07005KT 10SM SCT045 BKN055 09/08 A3004 RMK AO2
KWYS 181515Z AUTO 06006KT 10SM FEW042 09/09 A3003 RMK AO2
KWYS 181455Z AUTO 00000KT 10SM FEW025 SCT044 SCT060 08/08 A3005 RMK AO2 P0001
KWYS 181435Z AUTO 00000KT 10SM FEW025 BKN045 BKN060 08/08 A3005 RMK AO2
KWYS 181415Z AUTO 00000KT 10SM -DZ BKN041 BKN047 08/08 A3005 RMK AO2
KWYS 181355Z AUTO 12003KT 9SM SCT039 BKN048 BKN055 08/08 A3005 RMK AO2 P0001
KWYS 181335Z AUTO 15005KT 10SM FEW036 BKN050 OVC055 08/08 A3004 RMK AO2
KWYS 181315Z AUTO 17006KT 10SM BKN050 OVC065 08/08 A3004 RMK AO2
KWYS 181250Z AUTO 18005KT 10SM FEW041 OVC050 08/08 A3004 RMK AO2
KWYS 181230Z AUTO 20007KT 9SM FEW004 SCT033 BKN042 08/08 A3003 RMK AO2
KWYS 181210Z AUTO 00000KT 7SM -RA SCT028 BKN039 OVC046 08/08 A3003 RMK AO2
KWYS 181150Z AUTO 00000KT 6SM -RA SCT040 BKN048 OVC065 08/08 A3003 RMK AO2
KWYS 181135Z AUTO 00000KT 10SM BKN050 OVC065 08/08 A3002 RMK AO2
KWYS 181115Z AUTO 34004KT 9SM -RA BKN050 OVC060 08/08 A3001 RMK AO2
KWYS 181055Z AUTO 00000KT 10SM SCT055 OVC070 08/08 A3001 RMK AO2 P0002
KWYS 181035Z AUTO 05005KT 10SM FEW055 OVC070 09/09 A3002 RMK AO2
KWYS 181015Z AUTO 06007KT 9SM -RA FEW040 BKN050 OVC070 09/09 A3002 RMK AO2
KWYS 180955Z AUTO 06005KT 8SM -RA BKN040 OVC049 09/09 A3003 RMK AO2 P0013
KWYS 180930Z AUTO 00000KT 4SM RA BKN032 OVC040 09/09 A3004 RMK AO2
KWYS 180910Z AUTO 00000KT 7SM -RA BKN033 BKN039 OVC050 09/09 A3004 RMK AO2
KWYS 180855Z AUTO VRB03KT 10SM -RA SCT034 SCT044 OVC050 09/09 A3003 RMK AO2 P0001
KWYS 180835Z AUTO 00000KT 10SM SCT036 OVC050 09/09 A3003 RMK AO2
KWYS 180815Z AUTO 05003KT 10SM OVC050 09/09 A3003 RMK AO2
KWYS 180755Z AUTO 06006KT 7SM -RA BKN043 OVC055 09/09 A3002 RMK AO2 P0006
KWYS 180735Z AUTO 05009KT 5SM -RA FEW022 BKN044 OVC050 09/09 A3002 RMK AO2
KWYS 180710Z AUTO 33004KT 8SM -RA SCT023 BKN028 OVC055 09/09 A3004 RMK AO2
KWYS 180655Z AUTO 00000KT 10SM -RA SCT024 OVC060 09/09 A3004 RMK AO2
KWYS 180635Z AUTO VRB05KT 10SM SCT024 BKN060 OVC080 10/08 A3003 RMK AO2
KWYS 180615Z AUTO 09009KT 060V130 10SM SCT023 BKN065 OVC090 10/08 A3002 RMK AO2
KWYS 180555Z AUTO 00000KT 10SM FEW021 BKN065 OVC080 09/09 A3003 RMK AO2
KWYS 180535Z AUTO 07005KT 10SM FEW045 BKN060 OVC080 10/09 A3002 RMK AO2
KWYS 180510Z AUTO 07007KT 10SM FEW048 OVC060 10/09 A3002 RMK AO2
KWYS 180450Z AUTO 02003KT 10SM FEW029 OVC060 10/09 A3003 RMK AO2
KWYS 180430Z AUTO 00000KT 10SM FEW023 FEW031 OVC060 09/09 A3004 RMK AO2
KWYS 180415Z AUTO 34004KT 10SM SCT024 BKN060 OVC065 09/09 A3004 RMK AO2
KWYS 180355Z AUTO 00000KT 10SM BKN026 BKN032 OVC065 09/09 A3003 RMK AO2
KWYS 180335Z AUTO 34005KT 10SM BKN028 OVC033 09/09 A3002 RMK AO2
KWYS 180315Z AUTO 35005KT 10SM BKN029 BKN034 OVC070 09/09 A3002 RMK AO2
KWYS 180255Z AUTO 00000KT 9SM -RA BKN029 BKN034 09/09 A3003 RMK AO2 P0005
KWYS 180235Z AUTO VRB03KT 5SM -RA BKN029 BKN038 10/09 A3003 RMK AO2
KWYS 180215Z AUTO 00000KT 7SM -DZ BKN031 BKN038 BKN048 10/09 A3003 RMK AO2
KWYS 180150Z AUTO 35003KT 9SM -RA BKN039 OVC047 10/09 A3002 RMK AO2
KWYS 180130Z AUTO 00000KT 10SM SCT039 OVC047 10/09 A3002 RMK AO2
KWYS 180110Z AUTO 01005KT 10SM SCT039 BKN047 OVC055 10/09 A3001 RMK AO2
KWYS 180055Z AUTO 02005KT 10SM SCT040 BKN048 OVC055 10/09 A3001 RMK AO2
KWYS 180035Z AUTO 02007KT 10SM SCT043 OVC050 10/09 A3001 RMK AO2
KWYS 180015Z AUTO 05008KT 10SM BKN055 BKN070 10/10 A3001 RMK AO2
KWYS 172355Z AUTO VRB05KT 10SM FEW038 BKN050 OVC070 09/09 A3002 RMK AO2 P0003
KWYS 172335Z AUTO 36005KT 10SM FEW037 BKN050 BKN065 09/08 A3003 RMK AO2
KWYS 172310Z AUTO 35007KT 3SM -RA CLR 09/09 A3002 RMK AO2
KWYS 172250Z AUTO 00000KT 3SM RA BKN030 BKN035 BKN046 09/09 A3005 RMK AO2
KWYS 172235Z AUTO 36004G10KT 10SM OVC030 10/09 A3003 RMK AO2
KWYS 172215Z AUTO 35006KT 4SM -DZ FEW020 BKN027 10/09 A3002 RMK AO2
KWYS 172155Z AUTO 25006G13KT 4SM BR SCT020 SCT033 SCT044 10/10 A3002 RMK AO2 P0012
KWYS 172135Z AUTO 32005KT 3SM RA SCT033 SCT043 BKN049 09/09 A3000 RMK AO2
KWYS 172110Z AUTO 25005KT 9SM -RA BKN034 BKN046 OVC055 10/09 A3001 RMK AO2